sensor_id;sensor_type;location;lat;lon;timestamp;pressure;altitude;pressure_sealevel;temperature;humidity
71109;BME280;59614;51.012;-1.648;2023-02-02T00:00:42;101843.41;;;6.05;96.00
71109;BME280;59614;51.012;-1.648;2023-02-02T00:03:07;101840.88;;;6.09;96.35
71109;BME280;59614;51.012;-1.648;2023-02-02T00:05:35;101836.59;;;6.13;96.24
71109;BME280;59614;51.012;-1.648;2023-02-02T00:08:00;101844.38;;;6.10;96.29
71109;BME280;59614;51.012;-1.648;2023-02-02T00:10:25;101844.38;;;6.10;96.08
71109;BME280;59614;51.012;-1.648;2023-02-02T00:12:51;101850.41;;;6.06;96.49
71109;BME280;59614;51.012;-1.648;2023-02-02T00:15:16;101862.56;;;6.02;96.67
71109;BME280;59614;51.012;-1.648;2023-02-02T00:17:42;101857.25;;;6.00;97.04
71109;BME280;59614;51.012;-1.648;2023-02-02T00:20:07;101871.41;;;6.07;97.24
71109;BME280;59614;51.012;-1.648;2023-02-02T00:22:33;101868.06;;;6.13;96.32
71109;BME280;59614;51.012;-1.648;2023-02-02T00:24:59;101871.53;;;6.12;96.02
71109;BME280;59614;51.012;-1.648;2023-02-02T00:27:24;101866.91;;;6.01;95.99
71109;BME280;59614;51.012;-1.648;2023-02-02T00:29:50;101863.53;;;6.06;95.91
71109;BME280;59614;51.012;-1.648;2023-02-02T00:32:18;101869.75;;;6.11;96.38
71109;BME280;59614;51.012;-1.648;2023-02-02T00:34:44;101877.84;;;6.20;96.90
71109;BME280;59614;51.012;-1.648;2023-02-02T00:37:09;101868.44;;;6.28;97.13
71109;BME280;59614;51.012;-1.648;2023-02-02T00:39:35;101864.19;;;6.33;97.48
71109;BME280;59614;51.012;-1.648;2023-02-02T00:42:00;101861.94;;;6.49;97.01
71109;BME280;59614;51.012;-1.648;2023-02-02T00:44:26;101869.00;;;6.53;96.58
71109;BME280;59614;51.012;-1.648;2023-02-02T00:47:10;101857.03;;;6.64;96.28
71109;BME280;59614;51.012;-1.648;2023-02-02T00:49:36;101852.13;;;6.80;95.62
71109;BME280;59614;51.012;-1.648;2023-02-02T00:52:01;101854.63;;;6.74;95.64
71109;BME280;59614;51.012;-1.648;2023-02-02T00:54:27;101848.53;;;6.75;95.79
71109;BME280;59614;51.012;-1.648;2023-02-02T00:56:52;101832.81;;;6.75;96.35
71109;BME280;59614;51.012;-1.648;2023-02-02T00:59:18;101840.78;;;6.79;95.67
71109;BME280;59614;51.012;-1.648;2023-02-02T01:01:43;101839.16;;;6.86;96.21
71109;BME280;59614;51.012;-1.648;2023-02-02T01:04:08;101837.50;;;6.90;95.61
71109;BME280;59614;51.012;-1.648;2023-02-02T01:06:34;101846.22;;;6.89;95.66
71109;BME280;59614;51.012;-1.648;2023-02-02T01:08:59;101849.88;;;6.95;95.62
71109;BME280;59614;51.012;-1.648;2023-02-02T01:11:25;101849.13;;;7.03;95.79
71109;BME280;59614;51.012;-1.648;2023-02-02T01:13:50;101837.78;;;7.05;94.85
71109;BME280;59614;51.012;-1.648;2023-02-02T01:16:16;101845.56;;;7.01;95.72
71109;BME280;59614;51.012;-1.648;2023-02-02T01:18:42;101854.53;;;7.09;95.07
71109;BME280;59614;51.012;-1.648;2023-02-02T01:21:10;101863.03;;;6.99;95.03
71109;BME280;59614;51.012;-1.648;2023-02-02T01:23:36;101855.06;;;6.94;96.02
71109;BME280;59614;51.012;-1.648;2023-02-02T01:26:05;101864.19;;;7.11;95.02
71109;BME280;59614;51.012;-1.648;2023-02-02T01:28:30;101862.19;;;7.00;95.10
71109;BME280;59614;51.012;-1.648;2023-02-02T01:30:56;101859.56;;;7.00;95.55
71109;BME280;59614;51.012;-1.648;2023-02-02T01:33:23;101854.38;;;7.03;95.25
71109;BME280;59614;51.012;-1.648;2023-02-02T01:35:52;101848.28;;;7.04;94.87
71109;BME280;59614;51.012;-1.648;2023-02-02T01:38:18;101856.22;;;7.07;94.81
71109;BME280;59614;51.012;-1.648;2023-02-02T01:40:55;101854.31;;;7.00;95.13
71109;BME280;59614;51.012;-1.648;2023-02-02T01:45:46;101843.53;;;6.87;95.57
71109;BME280;59614;51.012;-1.648;2023-02-02T01:48:12;101844.53;;;6.92;95.41
71109;BME280;59614;51.012;-1.648;2023-02-02T01:50:39;101844.38;;;6.85;96.08
71109;BME280;59614;51.012;-1.648;2023-02-02T01:53:06;101850.56;;;6.88;95.83
71109;BME280;59614;51.012;-1.648;2023-02-02T01:55:34;101841.53;;;6.74;96.21
71109;BME280;59614;51.012;-1.648;2023-02-02T01:58:14;101846.63;;;6.68;96.73
71109;BME280;59614;51.012;-1.648;2023-02-02T02:00:42;101845.66;;;6.64;97.13
71109;BME280;59614;51.012;-1.648;2023-02-02T02:03:12;101853.84;;;6.78;96.55
71109;BME280;59614;51.012;-1.648;2023-02-02T02:05:55;101851.94;;;6.71;96.98
71109;BME280;59614;51.012;-1.648;2023-02-02T02:08:29;101840.53;;;6.69;96.91
71109;BME280;59614;51.012;-1.648;2023-02-02T02:10:56;101853.50;;;6.62;96.58
71109;BME280;59614;51.012;-1.648;2023-02-02T02:13:23;101845.66;;;6.62;96.95
71109;BME280;59614;51.012;-1.648;2023-02-02T02:34:09;101860.75;;;6.73;96.61
71109;BME280;59614;51.012;-1.648;2023-02-02T02:36:55;101861.88;;;6.86;95.61
71109;BME280;59614;51.012;-1.648;2023-02-02T02:39:57;101861.06;;;6.88;95.67
71109;BME280;59614;51.012;-1.648;2023-02-02T02:42:30;101865.63;;;6.97;95.12
71109;BME280;59614;51.012;-1.648;2023-02-02T02:45:00;101864.94;;;7.06;94.37
71109;BME280;59614;51.012;-1.648;2023-02-02T02:47:28;101867.53;;;7.04;94.05
71109;BME280;59614;51.012;-1.648;2023-02-02T02:49:54;101864.59;;;6.90;94.70
71109;BME280;59614;51.012;-1.648;2023-02-02T02:52:19;101869.94;;;6.93;94.36
71109;BME280;59614;51.012;-1.648;2023-02-02T02:54:53;101866.53;;;6.98;93.94
71109;BME280;59614;51.012;-1.648;2023-02-02T03:05:47;101870.97;;;6.62;94.79
71109;BME280;59614;51.012;-1.648;2023-02-02T03:10:40;101872.94;;;6.71;95.01
71109;BME280;59614;51.012;-1.648;2023-02-02T03:13:11;101865.78;;;6.63;94.60
71109;BME280;59614;51.012;-1.648;2023-02-02T03:15:44;101865.53;;;6.54;95.44
71109;BME280;59614;51.012;-1.648;2023-02-02T03:18:15;101863.09;;;6.62;95.34
71109;BME280;59614;51.012;-1.648;2023-02-02T03:20:43;101869.16;;;6.58;95.25
71109;BME280;59614;51.012;-1.648;2023-02-02T03:23:09;101874.41;;;6.59;95.34
71109;BME280;59614;51.012;-1.648;2023-02-02T03:25:35;101880.59;;;6.61;95.23
71109;BME280;59614;51.012;-1.648;2023-02-02T03:28:01;101880.63;;;6.64;94.54
71109;BME280;59614;51.012;-1.648;2023-02-02T03:30:27;101883.25;;;6.64;94.65
71109;BME280;59614;51.012;-1.648;2023-02-02T03:32:52;101879.03;;;6.71;94.67
71109;BME280;59614;51.012;-1.648;2023-02-02T03:35:18;101878.25;;;6.74;94.17
71109;BME280;59614;51.012;-1.648;2023-02-02T03:37:47;101881.09;;;6.83;93.89
71109;BME280;59614;51.012;-1.648;2023-02-02T03:40:12;101875.19;;;6.93;93.20
71109;BME280;59614;51.012;-1.648;2023-02-02T03:42:38;101873.34;;;6.89;93.04
71109;BME280;59614;51.012;-1.648;2023-02-02T03:45:04;101882.28;;;6.98;92.85
71109;BME280;59614;51.012;-1.648;2023-02-02T03:47:30;101875.38;;;7.03;92.08
71109;BME280;59614;51.012;-1.648;2023-02-02T03:49:55;101874.41;;;6.98;92.40
71109;BME280;59614;51.012;-1.648;2023-02-02T03:52:21;101882.41;;;7.04;92.28
71109;BME280;59614;51.012;-1.648;2023-02-02T03:54:47;101873.97;;;6.77;92.39
71109;BME280;59614;51.012;-1.648;2023-02-02T03:57:12;101880.63;;;7.03;91.93
71109;BME280;59614;51.012;-1.648;2023-02-02T03:59:38;101886.81;;;7.06;91.38
71109;BME280;59614;51.012;-1.648;2023-02-02T04:02:03;101884.19;;;7.05;91.55
71109;BME280;59614;51.012;-1.648;2023-02-02T04:04:28;101887.94;;;6.78;92.61
71109;BME280;59614;51.012;-1.648;2023-02-02T04:06:54;101888.75;;;6.74;92.79
71109;BME280;59614;51.012;-1.648;2023-02-02T04:09:20;101879.78;;;6.65;92.86
71109;BME280;59614;51.012;-1.648;2023-02-02T04:11:45;101887.75;;;6.69;93.02
71109;BME280;59614;51.012;-1.648;2023-02-02T04:14:11;101885.03;;;7.04;91.23
71109;BME280;59614;51.012;-1.648;2023-02-02T04:16:36;101893.19;;;7.16;90.52
71109;BME280;59614;51.012;-1.648;2023-02-02T04:19:05;101880.88;;;7.14;90.00
71109;BME280;59614;51.012;-1.648;2023-02-02T04:21:30;101893.25;;;7.19;89.42
71109;BME280;59614;51.012;-1.648;2023-02-02T04:23:56;101892.41;;;7.20;89.72
71109;BME280;59614;51.012;-1.648;2023-02-02T04:26:22;101884.38;;;7.14;90.15
71109;BME280;59614;51.012;-1.648;2023-02-02T04:28:50;101889.56;;;7.11;90.19
71109;BME280;59614;51.012;-1.648;2023-02-02T04:31:16;101891.28;;;7.09;90.47
71109;BME280;59614;51.012;-1.648;2023-02-02T04:33:41;101887.69;;;7.05;90.52
71109;BME280;59614;51.012;-1.648;2023-02-02T04:36:07;101891.09;;;7.01;91.15
71109;BME280;59614;51.012;-1.648;2023-02-02T04:38:32;101886.59;;;6.95;91.89
71109;BME280;59614;51.012;-1.648;2023-02-02T04:40:58;101884.84;;;6.96;91.18
71109;BME280;59614;51.012;-1.648;2023-02-02T04:43:23;101892.44;;;6.82;92.17
71109;BME280;59614;51.012;-1.648;2023-02-02T04:45:54;101882.78;;;6.81;92.33
71109;BME280;59614;51.012;-1.648;2023-02-02T04:48:20;101879.13;;;6.74;92.34
71109;BME280;59614;51.012;-1.648;2023-02-02T04:50:45;101878.47;;;6.83;92.30
71109;BME280;59614;51.012;-1.648;2023-02-02T04:53:11;101883.03;;;6.92;91.59
71109;BME280;59614;51.012;-1.648;2023-02-02T04:55:36;101880.44;;;6.93;91.45
71109;BME280;59614;51.012;-1.648;2023-02-02T04:58:03;101876.66;;;6.80;91.68
71109;BME280;59614;51.012;-1.648;2023-02-02T05:00:29;101880.25;;;6.84;91.16
71109;BME280;59614;51.012;-1.648;2023-02-02T05:02:54;101883.56;;;6.77;91.79
71109;BME280;59614;51.012;-1.648;2023-02-02T05:05:20;101889.59;;;6.73;91.97
71109;BME280;59614;51.012;-1.648;2023-02-02T05:07:45;101889.44;;;6.67;92.61
71109;BME280;59614;51.012;-1.648;2023-02-02T05:10:11;101882.69;;;6.76;92.16
71109;BME280;59614;51.012;-1.648;2023-02-02T05:12:36;101877.50;;;6.79;91.53
71109;BME280;59614;51.012;-1.648;2023-02-02T05:15:03;101885.03;;;6.65;93.06
71109;BME280;59614;51.012;-1.648;2023-02-02T05:17:30;101888.38;;;6.58;92.42
71109;BME280;59614;51.012;-1.648;2023-02-02T05:19:55;101896.91;;;6.49;93.10
71109;BME280;59614;51.012;-1.648;2023-02-02T05:22:21;101899.31;;;6.40;92.61
71109;BME280;59614;51.012;-1.648;2023-02-02T05:24:46;101893.19;;;6.40;93.40
71109;BME280;59614;51.012;-1.648;2023-02-02T05:27:12;101898.34;;;6.37;93.30
71109;BME280;59614;51.012;-1.648;2023-02-02T05:29:37;101901.84;;;6.37;93.28
71109;BME280;59614;51.012;-1.648;2023-02-02T05:32:02;101899.13;;;6.32;91.79
71109;BME280;59614;51.012;-1.648;2023-02-02T05:34:28;101899.00;;;6.28;92.74
71109;BME280;59614;51.012;-1.648;2023-02-02T05:36:53;101901.38;;;6.17;91.91
71109;BME280;59614;51.012;-1.648;2023-02-02T05:39:19;101898.59;;;6.11;92.92
71109;BME280;59614;51.012;-1.648;2023-02-02T05:41:44;101894.28;;;6.13;92.90
71109;BME280;59614;51.012;-1.648;2023-02-02T05:44:13;101891.66;;;6.13;93.30
71109;BME280;59614;51.012;-1.648;2023-02-02T05:46:39;101892.34;;;6.06;92.62
71109;BME280;59614;51.012;-1.648;2023-02-02T05:49:06;101886.84;;;5.96;92.78
71109;BME280;59614;51.012;-1.648;2023-02-02T05:51:34;101881.59;;;5.96;93.27
71109;BME280;59614;51.012;-1.648;2023-02-02T05:54:02;101878.31;;;6.03;93.94
71109;BME280;59614;51.012;-1.648;2023-02-02T05:56:28;101890.47;;;6.00;93.90
71109;BME280;59614;51.012;-1.648;2023-02-02T05:58:53;101891.66;;;6.13;93.75
71109;BME280;59614;51.012;-1.648;2023-02-02T06:01:19;101891.69;;;6.14;93.60
71109;BME280;59614;51.012;-1.648;2023-02-02T06:03:45;101883.69;;;6.10;94.33
71109;BME280;59614;51.012;-1.648;2023-02-02T06:06:11;101890.78;;;6.12;94.12
71109;BME280;59614;51.012;-1.648;2023-02-02T06:08:37;101885.13;;;6.30;94.38
71109;BME280;59614;51.012;-1.648;2023-02-02T06:11:10;101888.69;;;6.34;94.21
71109;BME280;59614;51.012;-1.648;2023-02-02T06:13:36;101891.63;;;6.48;94.46
71109;BME280;59614;51.012;-1.648;2023-02-02T06:16:02;101887.44;;;6.56;93.87
71109;BME280;59614;51.012;-1.648;2023-02-02T06:18:27;101891.13;;;6.63;94.30
71109;BME280;59614;51.012;-1.648;2023-02-02T06:21:00;101884.91;;;6.59;94.98
71109;BME280;59614;51.012;-1.648;2023-02-02T06:23:26;101882.41;;;6.65;95.06
71109;BME280;59614;51.012;-1.648;2023-02-02T06:25:52;101891.28;;;6.69;94.77
71109;BME280;59614;51.012;-1.648;2023-02-02T06:28:17;101887.66;;;6.65;95.29
71109;BME280;59614;51.012;-1.648;2023-02-02T06:30:43;101878.19;;;6.71;95.59
71109;BME280;59614;51.012;-1.648;2023-02-02T06:33:08;101888.97;;;6.83;94.59
71109;BME280;59614;51.012;-1.648;2023-02-02T06:35:34;101891.69;;;6.88;94.62
71109;BME280;59614;51.012;-1.648;2023-02-02T06:38:00;101905.53;;;6.80;94.85
71109;BME280;59614;51.012;-1.648;2023-02-02T06:40:26;101896.00;;;6.86;95.27
71109;BME280;59614;51.012;-1.648;2023-02-02T06:42:56;101896.97;;;6.89;94.96
71109;BME280;59614;51.012;-1.648;2023-02-02T06:45:22;101896.09;;;6.90;94.98
71109;BME280;59614;51.012;-1.648;2023-02-02T06:47:48;101895.97;;;6.84;95.30
71109;BME280;59614;51.012;-1.648;2023-02-02T06:50:13;101909.28;;;6.92;95.32
71109;BME280;59614;51.012;-1.648;2023-02-02T06:52:38;101905.03;;;6.99;94.76
71109;BME280;59614;51.012;-1.648;2023-02-02T06:55:04;101904.94;;;6.94;95.51
71109;BME280;59614;51.012;-1.648;2023-02-02T06:57:29;101902.25;;;6.91;95.39
71109;BME280;59614;51.012;-1.648;2023-02-02T06:59:55;101901.22;;;6.84;95.56
71109;BME280;59614;51.012;-1.648;2023-02-02T07:02:20;101916.19;;;6.88;96.04
71109;BME280;59614;51.012;-1.648;2023-02-02T07:04:47;101911.22;;;7.01;95.31
71109;BME280;59614;51.012;-1.648;2023-02-02T07:07:13;101918.03;;;6.92;95.67
71109;BME280;59614;51.012;-1.648;2023-02-02T07:09:38;101926.84;;;6.94;95.79
71109;BME280;59614;51.012;-1.648;2023-02-02T07:12:04;101925.91;;;6.92;95.96
71109;BME280;59614;51.012;-1.648;2023-02-02T07:14:29;101919.09;;;7.01;96.08
71109;BME280;59614;51.012;-1.648;2023-02-02T07:16:55;101921.59;;;6.96;97.00
71109;BME280;59614;51.012;-1.648;2023-02-02T07:19:20;101922.72;;;7.06;96.68
71109;BME280;59614;51.012;-1.648;2023-02-02T07:21:45;101926.66;;;6.87;97.39
71109;BME280;59614;51.012;-1.648;2023-02-02T07:24:11;101923.09;;;6.85;98.72
71109;BME280;59614;51.012;-1.648;2023-02-02T07:26:36;101924.88;;;6.86;98.35
71109;BME280;59614;51.012;-1.648;2023-02-02T07:29:03;101922.50;;;6.97;98.67
71109;BME280;59614;51.012;-1.648;2023-02-02T07:31:29;101931.34;;;7.02;99.66
71109;BME280;59614;51.012;-1.648;2023-02-02T07:33:54;101932.84;;;6.90;100.00
71109;BME280;59614;51.012;-1.648;2023-02-02T07:36:22;101932.75;;;6.86;100.00
71109;BME280;59614;51.012;-1.648;2023-02-02T07:38:50;101937.81;;;6.78;100.00
71109;BME280;59614;51.012;-1.648;2023-02-02T07:41:18;101932.94;;;6.95;100.00
71109;BME280;59614;51.012;-1.648;2023-02-02T07:43:46;101934.72;;;6.96;100.00
71109;BME280;59614;51.012;-1.648;2023-02-02T07:46:12;101937.44;;;6.99;100.00
71109;BME280;59614;51.012;-1.648;2023-02-02T07:48:38;101942.47;;;6.90;100.00
71109;BME280;59614;51.012;-1.648;2023-02-02T07:51:07;101943.13;;;6.79;100.00
71109;BME280;59614;51.012;-1.648;2023-02-02T07:53:33;101954.41;;;6.77;100.00
71109;BME280;59614;51.012;-1.648;2023-02-02T07:56:16;101945.91;;;6.87;100.00
71109;BME280;59614;51.012;-1.648;2023-02-02T07:58:42;101945.75;;;6.79;100.00
71109;BME280;59614;51.012;-1.648;2023-02-02T08:01:08;101940.50;;;6.81;100.00
71109;BME280;59614;51.012;-1.648;2023-02-02T08:03:34;101947.75;;;6.91;100.00
71109;BME280;59614;51.012;-1.648;2023-02-02T08:06:00;101941.66;;;6.92;100.00
71109;BME280;59614;51.012;-1.648;2023-02-02T08:08:26;101942.41;;;6.88;100.00
71109;BME280;59614;51.012;-1.648;2023-02-02T08:10:52;101948.59;;;6.90;100.00
71109;BME280;59614;51.012;-1.648;2023-02-02T08:13:18;101940.03;;;6.98;100.00
71109;BME280;59614;51.012;-1.648;2023-02-02T08:15:45;101945.28;;;6.98;100.00
71109;BME280;59614;51.012;-1.648;2023-02-02T08:18:10;101949.72;;;7.00;100.00
71109;BME280;59614;51.012;-1.648;2023-02-02T08:20:36;101949.53;;;6.92;100.00
71109;BME280;59614;51.012;-1.648;2023-02-02T08:23:01;101957.66;;;7.03;100.00
71109;BME280;59614;51.012;-1.648;2023-02-02T08:25:27;101952.84;;;7.23;100.00
71109;BME280;59614;51.012;-1.648;2023-02-02T08:27:53;101955.28;;;7.16;100.00
71109;BME280;59614;51.012;-1.648;2023-02-02T08:30:19;101964.44;;;7.33;100.00
71109;BME280;59614;51.012;-1.648;2023-02-02T08:32:45;101956.47;;;7.29;100.00
71109;BME280;59614;51.012;-1.648;2023-02-02T08:35:10;101962.84;;;7.41;100.00
71109;BME280;59614;51.012;-1.648;2023-02-02T08:37:36;101963.00;;;7.48;100.00
71109;BME280;59614;51.012;-1.648;2023-02-02T08:40:01;101964.72;;;7.46;100.00
71109;BME280;59614;51.012;-1.648;2023-02-02T08:42:27;101959.41;;;7.44;100.00
71109;BME280;59614;51.012;-1.648;2023-02-02T08:44:52;101958.63;;;7.48;100.00
71109;BME280;59614;51.012;-1.648;2023-02-02T08:47:18;101954.41;;;7.56;100.00
71109;BME280;59614;51.012;-1.648;2023-02-02T08:49:43;101958.75;;;7.54;100.00
71109;BME280;59614;51.012;-1.648;2023-02-02T08:52:09;101960.06;;;7.77;100.00
71109;BME280;59614;51.012;-1.648;2023-02-02T08:54:34;101964.66;;;7.87;100.00
71109;BME280;59614;51.012;-1.648;2023-02-02T08:57:00;101965.72;;;7.97;100.00
71109;BME280;59614;51.012;-1.648;2023-02-02T08:59:25;101970.31;;;8.07;100.00
71109;BME280;59614;51.012;-1.648;2023-02-02T09:01:51;101976.00;;;7.84;100.00
71109;BME280;59614;51.012;-1.648;2023-02-02T09:04:16;101986.72;;;7.95;100.00
71109;BME280;59614;51.012;-1.648;2023-02-02T09:06:42;101985.84;;;7.95;100.00
71109;BME280;59614;51.012;-1.648;2023-02-02T09:09:10;101992.06;;;8.00;100.00
71109;BME280;59614;51.012;-1.648;2023-02-02T09:11:37;101988.47;;;7.93;100.00
71109;BME280;59614;51.012;-1.648;2023-02-02T09:14:03;101987.81;;;8.07;100.00
71109;BME280;59614;51.012;-1.648;2023-02-02T09:16:31;101982.44;;;7.99;100.00
71109;BME280;59614;51.012;-1.648;2023-02-02T09:18:57;101986.31;;;8.19;100.00
71109;BME280;59614;51.012;-1.648;2023-02-02T09:21:23;101987.66;;;8.46;100.00
71109;BME280;59614;51.012;-1.648;2023-02-02T09:23:50;101985.03;;;8.97;100.00
71109;BME280;59614;51.012;-1.648;2023-02-02T09:28:48;101995.75;;;9.09;99.24
71109;BME280;59614;51.012;-1.648;2023-02-02T09:31:14;102000.47;;;9.34;97.83
71109;BME280;59614;51.012;-1.648;2023-02-02T09:33:41;102003.53;;;9.03;98.34
71109;BME280;59614;51.012;-1.648;2023-02-02T09:36:18;102004.69;;;9.22;98.48
71109;BME280;59614;51.012;-1.648;2023-02-02T09:38:47;102009.09;;;9.22;97.89
71109;BME280;59614;51.012;-1.648;2023-02-02T09:49:08;102030.44;;;9.40;97.33
71109;BME280;59614;51.012;-1.648;2023-02-02T09:51:43;102021.09;;;9.66;96.61
71109;BME280;59614;51.012;-1.648;2023-02-02T09:54:16;102019.69;;;9.26;96.90
71109;BME280;59614;51.012;-1.648;2023-02-02T09:56:47;102021.47;;;9.29;96.54
71109;BME280;59614;51.012;-1.648;2023-02-02T09:59:21;102024.75;;;9.12;98.38
71109;BME280;59614;51.012;-1.648;2023-02-02T10:01:56;102027.28;;;9.05;98.51
71109;BME280;59614;51.012;-1.648;2023-02-02T10:04:33;102019.44;;;9.09;98.20
71109;BME280;59614;51.012;-1.648;2023-02-02T10:07:11;102023.16;;;9.24;97.61
71109;BME280;59614;51.012;-1.648;2023-02-02T10:09:41;102023.13;;;9.21;97.48
71109;BME280;59614;51.012;-1.648;2023-02-02T10:12:38;102028.66;;;9.41;96.59
71109;BME280;59614;51.012;-1.648;2023-02-02T10:15:20;102031.53;;;9.56;95.70
71109;BME280;59614;51.012;-1.648;2023-02-02T10:23:16;102024.09;;;9.95;93.58
71109;BME280;59614;51.012;-1.648;2023-02-02T10:25:51;102033.78;;;9.98;93.40
71109;BME280;59614;51.012;-1.648;2023-02-02T10:28:19;102041.75;;;10.01;93.46
71109;BME280;59614;51.012;-1.648;2023-02-02T10:30:58;102034.66;;;9.94;92.93
71109;BME280;59614;51.012;-1.648;2023-02-02T10:33:38;102035.41;;;9.83;92.76
71109;BME280;59614;51.012;-1.648;2023-02-02T10:46:48;102026.47;;;10.47;90.50
71109;BME280;59614;51.012;-1.648;2023-02-02T10:49:34;102030.56;;;10.24;90.34
71109;BME280;59614;51.012;-1.648;2023-02-02T10:57:37;102019.44;;;10.51;89.47
71109;BME280;59614;51.012;-1.648;2023-02-02T11:02:49;102024.47;;;10.29;89.75
71109;BME280;59614;51.012;-1.648;2023-02-02T11:05:26;102025.41;;;10.33;89.77
71109;BME280;59614;51.012;-1.648;2023-02-02T11:08:19;102020.03;;;10.25;90.61
71109;BME280;59614;51.012;-1.648;2023-02-02T11:10:47;102013.19;;;10.38;89.45
71109;BME280;59614;51.012;-1.648;2023-02-02T11:13:36;102007.69;;;10.23;89.13
71109;BME280;59614;51.012;-1.648;2023-02-02T11:16:30;101993.53;;;10.14;89.73
71109;BME280;59614;51.012;-1.648;2023-02-02T11:18:56;101998.72;;;10.05;90.38
71109;BME280;59614;51.012;-1.648;2023-02-02T11:26:24;101981.38;;;10.29;89.43
71109;BME280;59614;51.012;-1.648;2023-02-02T11:28:52;101982.38;;;10.39;89.25
71109;BME280;59614;51.012;-1.648;2023-02-02T11:31:30;101984.31;;;10.57;88.21
71109;BME280;59614;51.012;-1.648;2023-02-02T11:36:39;101973.81;;;10.66;86.95
71109;BME280;59614;51.012;-1.648;2023-02-02T11:39:34;101971.41;;;10.94;85.62
71109;BME280;59614;51.012;-1.648;2023-02-02T11:42:01;101964.44;;;11.11;84.87
71109;BME280;59614;51.012;-1.648;2023-02-02T11:44:29;101966.09;;;10.94;85.62
71109;BME280;59614;51.012;-1.648;2023-02-02T11:46:57;101960.59;;;10.64;85.62
71109;BME280;59614;51.012;-1.648;2023-02-02T11:49:24;101966.72;;;10.57;86.76
71109;BME280;59614;51.012;-1.648;2023-02-02T11:52:05;101968.56;;;10.68;86.16
71109;BME280;59614;51.012;-1.648;2023-02-02T11:54:37;101956.25;;;10.71;86.04
71109;BME280;59614;51.012;-1.648;2023-02-02T11:57:07;101960.88;;;11.05;85.14
71109;BME280;59614;51.012;-1.648;2023-02-02T11:59:37;101965.25;;;10.96;85.08
71109;BME280;59614;51.012;-1.648;2023-02-02T12:04:34;101951.34;;;11.32;83.58
71109;BME280;59614;51.012;-1.648;2023-02-02T12:07:00;101946.88;;;11.18;84.45
71109;BME280;59614;51.012;-1.648;2023-02-02T12:09:25;101947.78;;;11.23;83.47
71109;BME280;59614;51.012;-1.648;2023-02-02T12:17:43;101942.59;;;11.43;83.09
71109;BME280;59614;51.012;-1.648;2023-02-02T12:25:50;101940.84;;;11.44;82.54
71109;BME280;59614;51.012;-1.648;2023-02-02T12:28:44;101934.63;;;11.37;82.83
71109;BME280;59614;51.012;-1.648;2023-02-02T12:45:55;101919.78;;;11.80;80.06
71109;BME280;59614;51.012;-1.648;2023-02-02T12:56:45;101909.31;;;12.09;79.18
71109;BME280;59614;51.012;-1.648;2023-02-02T13:02:14;101896.84;;;11.74;79.63
71109;BME280;59614;51.012;-1.648;2023-02-02T13:07:38;101891.50;;;11.46;81.09
71109;BME280;59614;51.012;-1.648;2023-02-02T13:12:58;101889.84;;;11.88;79.34
71109;BME280;59614;51.012;-1.648;2023-02-02T13:15:33;101895.06;;;11.68;80.19
71109;BME280;59614;51.012;-1.648;2023-02-02T13:18:03;101895.13;;;11.95;79.46
71109;BME280;59614;51.012;-1.648;2023-02-02T13:20:44;101890.78;;;12.15;79.07
71109;BME280;59614;51.012;-1.648;2023-02-02T13:23:32;101891.66;;;12.08;79.49
71109;BME280;59614;51.012;-1.648;2023-02-02T13:26:41;101898.72;;;12.03;78.70
71109;BME280;59614;51.012;-1.648;2023-02-02T13:34:57;101896.75;;;11.40;81.01
71109;BME280;59614;51.012;-1.648;2023-02-02T13:37:43;101902.97;;;11.56;81.13
71109;BME280;59614;51.012;-1.648;2023-02-02T13:40:26;101903.03;;;11.82;80.93
71109;BME280;59614;51.012;-1.648;2023-02-02T13:45:54;101903.94;;;11.78;81.63
71109;BME280;59614;51.012;-1.648;2023-02-02T13:48:42;101898.53;;;11.46;81.46
71109;BME280;59614;51.012;-1.648;2023-02-02T14:02:03;101901.38;;;12.18;78.75
71109;BME280;59614;51.012;-1.648;2023-02-02T14:04:31;101908.41;;;12.29;78.93
71109;BME280;59614;51.012;-1.648;2023-02-02T14:07:00;101911.94;;;12.60;77.89
71109;BME280;59614;51.012;-1.648;2023-02-02T14:09:31;101906.66;;;12.48;78.40
71109;BME280;59614;51.012;-1.648;2023-02-02T14:12:01;101906.69;;;12.42;78.42
71109;BME280;59614;51.012;-1.648;2023-02-02T14:14:28;101902.19;;;11.96;79.05
71109;BME280;59614;51.012;-1.648;2023-02-02T14:17:07;101898.72;;;11.98;79.62
71109;BME280;59614;51.012;-1.648;2023-02-02T14:19:56;101899.59;;;12.13;79.93
71109;BME280;59614;51.012;-1.648;2023-02-02T14:22:41;101900.47;;;12.16;79.23
71109;BME280;59614;51.012;-1.648;2023-02-02T14:27:58;101900.50;;;12.04;79.88
71109;BME280;59614;51.012;-1.648;2023-02-02T14:30:27;101902.25;;;12.02;79.12
71109;BME280;59614;51.012;-1.648;2023-02-02T14:32:53;101900.47;;;12.07;79.69
71109;BME280;59614;51.012;-1.648;2023-02-02T14:43:49;101897.72;;;11.62;80.03
71109;BME280;59614;51.012;-1.648;2023-02-02T14:51:21;101910.03;;;11.52;78.81
71109;BME280;59614;51.012;-1.648;2023-02-02T14:54:03;101909.25;;;11.97;77.64
71109;BME280;59614;51.012;-1.648;2023-02-02T14:56:46;101900.38;;;11.67;77.67
71109;BME280;59614;51.012;-1.648;2023-02-02T14:59:22;101911.81;;;11.61;78.25
71109;BME280;59614;51.012;-1.648;2023-02-02T15:04:34;101899.47;;;11.55;78.48
71109;BME280;59614;51.012;-1.648;2023-02-02T15:09:48;101898.59;;;11.56;77.91
71109;BME280;59614;51.012;-1.648;2023-02-02T15:12:16;101901.16;;;11.41;78.62
71109;BME280;59614;51.012;-1.648;2023-02-02T15:23:06;101916.09;;;11.23;80.42
71109;BME280;59614;51.012;-1.648;2023-02-02T15:25:46;101924.88;;;11.22;80.69
71109;BME280;59614;51.012;-1.648;2023-02-02T15:28:18;101928.41;;;11.20;81.12
71109;BME280;59614;51.012;-1.648;2023-02-02T15:30:50;101921.28;;;11.08;81.97
71109;BME280;59614;51.012;-1.648;2023-02-02T15:33:28;101925.59;;;10.92;82.60
71109;BME280;59614;51.012;-1.648;2023-02-02T15:35:57;101934.34;;;10.86;83.00
71109;BME280;59614;51.012;-1.648;2023-02-02T15:38:31;101939.56;;;10.77;83.66
71109;BME280;59614;51.012;-1.648;2023-02-02T15:41:03;101936.94;;;10.77;84.05
71109;BME280;59614;51.012;-1.648;2023-02-02T15:43:30;101930.78;;;10.81;83.81